createdAt,value
2019-01-18T00:00:29.668Z,53.7
2019-01-18T00:05:28.650Z,53.6
2019-01-18T00:10:27.247Z,53.7
2019-01-18T00:15:26.227Z,53.6
2019-01-18T00:20:25.292Z,53.7
2019-01-18T00:25:24.196Z,53.6
2019-01-18T00:30:22.841Z,53.6
2019-01-18T00:35:21.679Z,53.6
2019-01-18T00:40:20.705Z,53.7
2019-01-18T00:45:19.831Z,53.6
2019-01-18T00:50:18.242Z,53.6
2019-01-18T00:55:16.796Z,53.6
2019-01-18T01:00:15.837Z,53.5
2019-01-18T01:05:15.010Z,53.5
2019-01-18T01:10:14.086Z,53.5
2019-01-18T01:15:13.209Z,53.5
2019-01-18T01:20:12.220Z,53.5
2019-01-18T01:25:11.388Z,53.5
2019-01-18T01:30:10.453Z,53.5
2019-01-18T01:35:09.535Z,53.5
2019-01-18T01:40:08.634Z,53.5
2019-01-18T01:45:07.730Z,53.5
2019-01-18T01:50:06.786Z,53.5
2019-01-18T01:55:05.764Z,53.5
2019-01-18T02:00:04.715Z,53.4
2019-01-18T02:05:03.886Z,53.4
2019-01-18T02:10:02.792Z,53.4
2019-01-18T02:15:01.889Z,53.4
2019-01-18T02:20:00.811Z,53.4
2019-01-18T02:24:59.699Z,53.3
2019-01-18T02:29:58.846Z,53.3
2019-01-18T02:34:57.882Z,53.3
2019-01-18T02:39:56.805Z,53.3
2019-01-18T02:44:55.845Z,53.3
2019-01-18T02:49:54.943Z,53.3
2019-01-18T02:54:54.157Z,53.2
2019-01-18T02:59:53.174Z,53.2
2019-01-18T03:04:52.234Z,53.2
2019-01-18T03:09:51.358Z,53.2
2019-01-18T03:14:49.566Z,53.1
2019-01-18T03:19:48.769Z,53.1
2019-01-18T03:24:47.875Z,53.1
2019-01-18T03:29:46.881Z,53.1
2019-01-18T03:34:45.938Z,53.1
2019-01-18T03:39:45.049Z,53.1
2019-01-18T03:44:43.942Z,53
2019-01-18T03:49:42.456Z,53
2019-01-18T03:54:41.583Z,53
2019-01-18T03:59:40.611Z,52.9
2019-01-18T04:04:38.974Z,52.9
2019-01-18T04:09:37.818Z,52.9
2019-01-18T04:14:36.809Z,52.9
2019-01-18T04:19:35.836Z,52.9
2019-01-18T04:24:34.492Z,52.9
2019-01-18T04:29:33.321Z,52.9
2019-01-18T04:34:32.452Z,52.8
2019-01-18T04:39:31.728Z,52.8
2019-01-18T04:44:30.785Z,52.8
2019-01-18T04:49:29.816Z,52.8
2019-01-18T04:54:29.075Z,52.8
2019-01-18T04:59:27.969Z,52.8
2019-01-18T05:04:27.035Z,52.8
2019-01-18T05:09:26.084Z,52.7
2019-01-18T05:14:25.013Z,52.7
2019-01-18T05:19:23.999Z,52.7
2019-01-18T05:24:23.303Z,52.7
2019-01-18T05:29:22.274Z,52.7
2019-01-18T05:34:21.129Z,52.7
2019-01-18T05:39:20.225Z,52.6
2019-01-18T05:44:19.231Z,52.6
2019-01-18T05:49:18.197Z,52.5
2019-01-18T05:54:17.349Z,52.6
2019-01-18T05:59:16.454Z,52.5
2019-01-18T06:04:15.530Z,52.5
2019-01-18T06:09:14.600Z,52.5
2019-01-18T06:14:13.058Z,52.5
2019-01-18T06:19:12.030Z,52.5
2019-01-18T06:24:11.022Z,52.4
2019-01-18T06:29:10.237Z,52.4
2019-01-18T06:34:09.129Z,52.4
2019-01-18T06:39:08.213Z,52.4
2019-01-18T06:44:07.391Z,52.4
2019-01-18T06:49:06.411Z,52.4
2019-01-18T06:54:05.614Z,52.4
2019-01-18T06:59:04.535Z,52.4
2019-01-18T07:04:03.602Z,52.3
2019-01-18T07:09:02.803Z,52.3
2019-01-18T07:14:01.793Z,52.4
2019-01-18T07:19:00.941Z,52.4
2019-01-18T07:24:00.153Z,52.3
2019-01-18T07:28:59.307Z,52.4
2019-01-18T07:33:58.439Z,52.4
2019-01-18T07:39:00.833Z,52.4
2019-01-18T07:43:59.803Z,52.4
2019-01-18T07:48:58.628Z,52.4
2019-01-18T07:53:57.067Z,52.4
2019-01-18T07:58:56.115Z,52.4
2019-01-18T08:03:55.013Z,52.4
2019-01-18T08:08:54.124Z,52.4
2019-01-18T08:13:53.008Z,52.5
2019-01-18T08:18:52.415Z,52.5
2019-01-18T08:23:51.232Z,52.6
2019-01-18T08:28:54.069Z,52.6
2019-01-18T08:33:52.705Z,52.6
2019-01-18T08:38:52.428Z,52.6
2019-01-18T08:43:51.492Z,52.7
2019-01-18T08:48:51.024Z,52.7
2019-01-18T08:53:50.091Z,52.8
2019-01-18T08:58:49.209Z,52.7
2019-01-18T09:03:47.934Z,52.8
2019-01-18T09:08:47.070Z,52.8
2019-01-18T09:13:46.215Z,52.8
2019-01-18T09:18:45.408Z,52.8
2019-01-18T09:23:44.544Z,52.9
2019-01-18T09:28:43.566Z,52.9
2019-01-18T09:33:42.593Z,52.9
2019-01-18T09:38:41.686Z,52.9
2019-01-18T09:43:40.803Z,53
2019-01-18T09:48:41.728Z,52.9
2019-01-18T09:53:41.135Z,53
2019-01-18T09:58:40.166Z,53
2019-01-18T10:03:39.083Z,53
2019-01-18T10:08:38.232Z,53.1
2019-01-18T10:13:37.488Z,53.1
2019-01-18T10:18:36.782Z,53.2
2019-01-18T10:23:35.722Z,53.2
2019-01-18T10:28:34.759Z,53.2
2019-01-18T10:33:33.829Z,53.3
2019-01-18T10:38:32.678Z,53.3
2019-01-18T10:43:31.860Z,53.4
2019-01-18T10:48:30.384Z,53.4
2019-01-18T10:53:29.527Z,53.5
2019-01-18T10:58:28.037Z,53.6
2019-01-18T11:03:26.737Z,53.6
2019-01-18T11:08:25.874Z,53.6
2019-01-18T11:13:24.723Z,53.7
2019-01-18T11:18:23.715Z,53.8
2019-01-18T11:23:22.565Z,53.9
2019-01-18T11:28:21.628Z,53.9
2019-01-18T11:33:20.553Z,54
2019-01-18T11:38:19.616Z,54.1
2019-01-18T11:43:18.412Z,54.2
2019-01-18T11:48:17.612Z,54.3
2019-01-18T11:53:16.943Z,54.3
2019-01-18T11:58:15.966Z,54.3
2019-01-18T12:03:15.097Z,54.4
2019-01-18T12:08:14.243Z,54.4
2019-01-18T12:13:13.382Z,54.5
2019-01-18T12:18:12.611Z,54.5
2019-01-18T12:23:11.692Z,54.5
2019-01-18T12:28:10.250Z,54.6
2019-01-18T12:33:09.266Z,54.7
2019-01-18T12:38:08.524Z,54.7
2019-01-18T12:43:07.589Z,54.7
2019-01-18T12:48:06.710Z,54.6
2019-01-18T12:53:05.694Z,54.6
2019-01-18T12:58:04.900Z,54.6
2019-01-18T13:03:03.868Z,54.6
2019-01-18T13:08:03.070Z,54.6
2019-01-18T13:13:02.131Z,54.6
2019-01-18T13:18:01.350Z,54.6
2019-01-18T13:23:00.418Z,54.6
2019-01-18T13:28:00.348Z,54.7
2019-01-18T13:32:59.588Z,54.6
2019-01-18T13:37:58.632Z,54.6
2019-01-18T13:42:57.808Z,54.6
2019-01-18T13:47:57.283Z,54.6
2019-01-18T13:52:56.238Z,54.6
2019-01-18T13:57:55.343Z,54.6
2019-01-18T14:02:54.163Z,54.6
2019-01-18T14:07:53.826Z,54.6
2019-01-18T14:12:52.768Z,54.6
2019-01-18T14:17:51.313Z,54.6
2019-01-18T14:22:50.118Z,54.6
2019-01-18T14:27:49.310Z,54.6
2019-01-18T14:32:55.123Z,54.5
2019-01-18T14:37:53.510Z,54.5
2019-01-18T14:42:52.602Z,54.5
2019-01-18T14:47:51.829Z,54.6
2019-01-18T14:52:51.043Z,54.5
2019-01-18T14:57:50.300Z,54.5
2019-01-18T15:02:49.243Z,54.5
2019-01-18T15:07:48.348Z,54.5
2019-01-18T15:12:47.568Z,54.5
2019-01-18T15:17:46.690Z,54.5
2019-01-18T15:22:46.116Z,54.6
2019-01-18T15:27:45.322Z,54.6
2019-01-18T15:32:43.923Z,54.6
2019-01-18T15:37:43.046Z,54.6
2019-01-18T15:42:41.809Z,54.6
2019-01-18T15:47:40.843Z,54.6
2019-01-18T15:52:39.923Z,54.5
2019-01-18T15:57:39.050Z,54.5
2019-01-18T16:02:38.077Z,54.5
2019-01-18T16:07:37.182Z,54.5
2019-01-18T16:12:36.005Z,54.5
2019-01-18T16:17:35.204Z,54.5
2019-01-18T16:22:34.342Z,54.4
2019-01-18T16:27:32.797Z,54.4
2019-01-18T16:32:32.008Z,54.4
2019-01-18T16:37:30.982Z,54.4
2019-01-18T16:42:29.964Z,54.4
2019-01-18T16:47:28.672Z,54.3
2019-01-18T16:52:27.731Z,54.3
2019-01-18T16:57:26.887Z,54.3
2019-01-18T17:02:25.982Z,54.3
2019-01-18T17:07:25.125Z,54.3
2019-01-18T17:12:24.245Z,54.3
2019-01-18T17:17:23.365Z,54.2
2019-01-18T17:22:22.489Z,54.2
2019-01-18T17:27:21.606Z,54.2
2019-01-18T17:32:20.631Z,54.2
2019-01-18T17:37:19.860Z,54.2
2019-01-18T17:42:19.019Z,54.2
2019-01-18T17:47:18.060Z,54.2
2019-01-18T17:52:17.080Z,54.2
2019-01-18T17:57:16.224Z,54.2
2019-01-18T18:02:15.374Z,54.2
2019-01-18T18:07:14.584Z,54.1
2019-01-18T18:12:13.762Z,54.2
2019-01-18T18:17:12.798Z,54.2
2019-01-18T18:22:11.879Z,54.1
2019-01-18T18:27:11.229Z,54.2
2019-01-18T18:32:30.830Z,54.2
2019-01-18T18:37:27.489Z,54
2019-01-18T18:42:28.801Z,54.1
2019-01-18T18:47:27.414Z,54
2019-01-18T18:52:26.822Z,54
2019-01-18T18:57:26.027Z,54.1
2019-01-18T19:02:25.274Z,54.1
2019-01-18T19:07:24.478Z,54.1
2019-01-18T19:12:23.611Z,54.1
2019-01-18T19:17:22.989Z,54
2019-01-18T19:22:22.092Z,54
2019-01-18T19:27:21.166Z,54.1
2019-01-18T19:32:19.941Z,54.1
2019-01-18T19:37:19.220Z,54.1
2019-01-18T19:42:19.858Z,54.1
2019-01-18T19:47:18.885Z,54.1
2019-01-18T19:52:18.000Z,54.1
2019-01-18T19:57:16.941Z,54.1
2019-01-18T20:02:15.702Z,54.1
2019-01-18T20:07:14.840Z,54.1
2019-01-18T20:12:13.981Z,54.1
2019-01-18T20:17:12.858Z,54.1
2019-01-18T20:22:12.069Z,54.1
2019-01-18T20:27:11.203Z,54.1
2019-01-18T20:32:10.340Z,54.1
2019-01-18T20:37:09.298Z,54.1
2019-01-18T20:42:08.379Z,54.1
2019-01-18T20:47:07.341Z,54.1
2019-01-18T20:52:06.359Z,54.1
2019-01-18T20:57:05.466Z,54.1
2019-01-18T21:02:04.524Z,54.1
2019-01-18T21:07:03.664Z,54.1
2019-01-18T21:12:02.760Z,54.1
2019-01-18T21:17:01.306Z,54.1
2019-01-18T21:22:00.280Z,54.1
2019-01-18T21:26:59.576Z,54.1
2019-01-18T21:31:58.705Z,54.1
2019-01-18T21:36:57.958Z,54.1
2019-01-18T21:41:57.059Z,54.1
2019-01-18T21:46:56.133Z,54.1
2019-01-18T21:51:55.342Z,54.1
2019-01-18T21:56:54.566Z,54.1
2019-01-18T22:01:53.762Z,54.1
2019-01-18T22:06:52.798Z,54.1
2019-01-18T22:11:51.859Z,54.1
2019-01-18T22:16:51.012Z,54.1
2019-01-18T22:21:50.152Z,54.1
2019-01-18T22:26:49.245Z,54.1
2019-01-18T22:31:48.318Z,54.2
2019-01-18T22:36:47.447Z,54.2
2019-01-18T22:41:46.270Z,54.2
2019-01-18T22:46:45.059Z,54.2
2019-01-18T22:51:44.178Z,54.2
2019-01-18T22:56:43.329Z,54.2
2019-01-18T23:01:42.259Z,54.2
2019-01-18T23:06:41.491Z,54.2
2019-01-18T23:11:40.722Z,54.2
2019-01-18T23:16:39.911Z,54.2
2019-01-18T23:21:39.086Z,54.2
2019-01-18T23:26:38.217Z,54.1
2019-01-18T23:31:37.325Z,54.2
2019-01-18T23:36:36.355Z,54.2
2019-01-18T23:41:35.554Z,54.2
2019-01-18T23:46:34.310Z,54.2
2019-01-18T23:51:32.813Z,54.2
2019-01-18T23:56:32.082Z,54.2
